Home   Weather   Sweden   Stockholm   Past weeks
Flag for Sweden

Past Weather in Stockholm, Sweden — August 2018

Currently: 57 °F. Cool. (Weather station: Stockholm Bromma Airport, Sweden). See more current weather

August 2018 Weather in Stockholm — Graph

°F

High & Low Weather Summary for August 2018

 TemperatureHumidityPressure
High88 °F (Aug 1, 1:50 pm)100% (Aug 1, 3:20 am)30.15 "Hg (Aug 1, 3:20 am)
Low43 °F (Aug 22, 4:20 am)29% (Aug 8, 4:50 pm)29.50 "Hg (Aug 24, 12:50 pm)
Average66 °F73%29.88 "Hg
* Reported Aug 1 12:20 am — Aug 31 11:50 pm, Stockholm. Weather by CustomWeather, © 2022

Note: Actual official high and low records may vary slightly from our data, if they occured in-between our weather recording intervals... More about our weather records

Stockholm Weather History for August 1, 2018

Scroll right to see more
 ConditionsComfort  
Time TempWeatherWind HumidityBarometerVisibility
12:20 am
Wed, Aug 1
72 °FMild.6 mph94%30.12 "HgN/A
12:50 am72 °FMild.8 mph94%30.09 "HgN/A
1:20 am72 °FPassing clouds.7 mph94%30.09 "HgN/A
1:50 am72 °FPassing clouds.3 mph94%30.12 "HgN/A
2:50 am72 °FMild.3 mph94%30.12 "HgN/A
3:20 am70 °FMild.3 mph100%30.09 "HgN/A
3:50 am70 °FMild.2 mph100%30.12 "HgN/A
4:20 am68 °FFog.No wind100%30.12 "Hg4 mi
4:50 am68 °FFog.No wind100%30.12 "Hg4 mi
5:20 am68 °FFog.No wind100%30.12 "Hg4 mi
5:50 am72 °FFog.3 mph94%30.12 "Hg6 mi
6:20 am73 °FSunny.7 mph89%30.12 "Hg10 mi
6:50 am75 °FSunny.7 mph83%30.12 "Hg10 mi
7:20 am75 °FSunny.7 mph89%30.12 "Hg10 mi
7:50 am77 °FSunny.7 mph79%30.12 "Hg10 mi
8:50 am81 °FPassing clouds.5 mph62%30.12 "HgN/A
9:20 am81 °FSunny.6 mph62%30.12 "Hg10 mi
9:50 am82 °FSunny.7 mph58%30.12 "Hg10 mi
10:20 am84 °FPassing clouds.9 mph55%30.12 "HgN/A
10:50 am86 °FPassing clouds.8 mph55%30.12 "HgN/A
11:20 am86 °FPassing clouds.10 mph55%30.12 "HgN/A
11:50 am86 °FPassing clouds.10 mph52%30.12 "HgN/A
12:20 pm86 °FPassing clouds.9 mph55%30.12 "HgN/A
12:50 pm86 °FScattered clouds.10 mph52%30.12 "HgN/A
1:20 pm86 °FScattered clouds.10 mph52%30.12 "HgN/A
1:50 pm88 °FScattered clouds.12 mph49%30.12 "HgN/A
2:50 pm88 °FPassing clouds.9 mph46%30.12 "HgN/A
3:20 pm86 °FPassing clouds.10 mph49%30.12 "HgN/A
3:50 pm86 °FSunny.8 mph49%30.12 "Hg10 mi
4:20 pm86 °FSunny.10 mph52%30.12 "Hg10 mi
4:50 pm84 °FSunny.10 mph51%30.12 "Hg10 mi
5:20 pm86 °FSunny.9 mph46%30.12 "Hg10 mi
5:50 pm84 °FSunny.9 mph48%30.09 "Hg10 mi
6:20 pm84 °FSunny.8 mph48%30.12 "Hg10 mi
6:50 pm82 °FSunny.8 mph62%30.09 "Hg10 mi
7:20 pm82 °FSunny.6 mph62%30.12 "Hg10 mi
7:50 pm81 °FSunny.9 mph62%30.12 "Hg10 mi
8:50 pm79 °FSunny.7 mph74%30.12 "Hg10 mi
9:20 pm77 °FClear.9 mph83%30.12 "Hg10 mi
9:50 pm77 °FClear.7 mph83%30.12 "Hg10 mi
10:20 pm75 °FMild.5 mph89%30.15 "HgN/A
10:50 pm75 °FPassing clouds.3 mph89%30.15 "HgN/A
11:20 pm75 °FPassing clouds.5 mph89%30.15 "HgN/A
11:50 pm73 °FPassing clouds.3 mph94%30.15 "HgN/A
Weather by CustomWeather, © 2022

See weather overview